sensor_id;sensor_type;location;lat;lon;timestamp;temperature;humidity
28763;DHT22;15918;51.270;6.522;2023-02-15T00:01:46;10.20;63.10
28763;DHT22;15918;51.270;6.522;2023-02-15T00:04:17;10.20;63.10
28763;DHT22;15918;51.270;6.522;2023-02-15T00:06:43;10.20;63.00
28763;DHT22;15918;51.270;6.522;2023-02-15T00:09:10;10.20;63.10
28763;DHT22;15918;51.270;6.522;2023-02-15T00:11:36;10.20;63.10
28763;DHT22;15918;51.270;6.522;2023-02-15T00:14:13;10.20;63.00
28763;DHT22;15918;51.270;6.522;2023-02-15T00:16:41;10.20;63.00
28763;DHT22;15918;51.270;6.522;2023-02-15T00:19:07;10.10;63.00
28763;DHT22;15918;51.270;6.522;2023-02-15T00:21:34;10.10;63.00
28763;DHT22;15918;51.270;6.522;2023-02-15T00:24:01;10.10;63.10
28763;DHT22;15918;51.270;6.522;2023-02-15T00:26:28;10.10;63.10
28763;DHT22;15918;51.270;6.522;2023-02-15T00:28:53;10.10;63.00
28763;DHT22;15918;51.270;6.522;2023-02-15T00:31:20;10.10;63.00
28763;DHT22;15918;51.270;6.522;2023-02-15T00:33:46;10.10;63.00
28763;DHT22;15918;51.270;6.522;2023-02-15T00:36:12;10.10;63.00
28763;DHT22;15918;51.270;6.522;2023-02-15T00:38:37;10.10;63.00
28763;DHT22;15918;51.270;6.522;2023-02-15T00:41:05;10.10;63.00
28763;DHT22;15918;51.270;6.522;2023-02-15T00:43:31;10.10;63.00
28763;DHT22;15918;51.270;6.522;2023-02-15T00:45:58;10.10;62.90
28763;DHT22;15918;51.270;6.522;2023-02-15T00:48:24;10.00;62.80
28763;DHT22;15918;51.270;6.522;2023-02-15T00:50:56;10.00;62.80
28763;DHT22;15918;51.270;6.522;2023-02-15T00:53:22;10.00;62.70
28763;DHT22;15918;51.270;6.522;2023-02-15T00:55:48;10.00;62.70
28763;DHT22;15918;51.270;6.522;2023-02-15T00:58:15;10.00;62.80
28763;DHT22;15918;51.270;6.522;2023-02-15T01:00:42;10.00;62.80
28763;DHT22;15918;51.270;6.522;2023-02-15T01:03:09;10.00;62.80
28763;DHT22;15918;51.270;6.522;2023-02-15T01:05:35;10.00;62.80
28763;DHT22;15918;51.270;6.522;2023-02-15T01:08:01;9.90;62.60
28763;DHT22;15918;51.270;6.522;2023-02-15T01:10:27;9.90;62.60
28763;DHT22;15918;51.270;6.522;2023-02-15T01:12:54;9.90;62.70
28763;DHT22;15918;51.270;6.522;2023-02-15T01:15:20;9.90;62.60
28763;DHT22;15918;51.270;6.522;2023-02-15T01:17:46;9.90;62.60
28763;DHT22;15918;51.270;6.522;2023-02-15T01:20:17;9.90;62.60
28763;DHT22;15918;51.270;6.522;2023-02-15T01:22:43;9.90;62.60
28763;DHT22;15918;51.270;6.522;2023-02-15T01:25:09;9.90;62.60
28763;DHT22;15918;51.270;6.522;2023-02-15T01:27:34;9.90;62.60
28763;DHT22;15918;51.270;6.522;2023-02-15T01:30:00;9.90;62.60
28763;DHT22;15918;51.270;6.522;2023-02-15T01:32:26;9.80;62.50
28763;DHT22;15918;51.270;6.522;2023-02-15T01:34:52;9.80;62.50
28763;DHT22;15918;51.270;6.522;2023-02-15T01:37:17;9.80;62.50
28763;DHT22;15918;51.270;6.522;2023-02-15T01:39:43;9.80;62.60
28763;DHT22;15918;51.270;6.522;2023-02-15T01:42:12;9.80;62.50
28763;DHT22;15918;51.270;6.522;2023-02-15T01:44:58;9.80;62.50
28763;DHT22;15918;51.270;6.522;2023-02-15T01:55:22;9.70;62.50
28763;DHT22;15918;51.270;6.522;2023-02-15T01:57:49;9.70;62.60
28763;DHT22;15918;51.270;6.522;2023-02-15T02:00:15;9.70;62.50
28763;DHT22;15918;51.270;6.522;2023-02-15T02:02:43;9.70;62.50
28763;DHT22;15918;51.270;6.522;2023-02-15T02:05:10;9.70;62.50
28763;DHT22;15918;51.270;6.522;2023-02-15T02:07:41;9.70;62.50
28763;DHT22;15918;51.270;6.522;2023-02-15T02:10:11;9.70;62.50
28763;DHT22;15918;51.270;6.522;2023-02-15T02:12:37;9.70;62.50
28763;DHT22;15918;51.270;6.522;2023-02-15T02:15:05;9.60;62.50
28763;DHT22;15918;51.270;6.522;2023-02-15T02:18:19;9.60;62.40
28763;DHT22;15918;51.270;6.522;2023-02-15T02:28:56;9.60;62.50
28763;DHT22;15918;51.270;6.522;2023-02-15T02:34:16;9.50;62.50
28763;DHT22;15918;51.270;6.522;2023-02-15T02:39:33;9.50;62.50
28763;DHT22;15918;51.270;6.522;2023-02-15T02:44:42;9.50;62.50
28763;DHT22;15918;51.270;6.522;2023-02-15T02:47:21;9.50;62.40
28763;DHT22;15918;51.270;6.522;2023-02-15T02:49:52;9.50;62.50
28763;DHT22;15918;51.270;6.522;2023-02-15T02:52:41;9.50;62.50
28763;DHT22;15918;51.270;6.522;2023-02-15T02:58:20;9.50;62.50
28763;DHT22;15918;51.270;6.522;2023-02-15T03:03:36;9.40;62.50
28763;DHT22;15918;51.270;6.522;2023-02-15T03:06:08;9.40;62.40
28763;DHT22;15918;51.270;6.522;2023-02-15T03:08:44;9.40;62.50
28763;DHT22;15918;51.270;6.522;2023-02-15T03:11:12;9.40;62.50
28763;DHT22;15918;51.270;6.522;2023-02-15T03:13:38;9.40;62.50
28763;DHT22;15918;51.270;6.522;2023-02-15T03:16:05;9.30;62.50
28763;DHT22;15918;51.270;6.522;2023-02-15T03:19:40;9.30;62.50
28763;DHT22;15918;51.270;6.522;2023-02-15T03:21:48;9.30;62.60
28763;DHT22;15918;51.270;6.522;2023-02-15T03:24:34;9.30;62.50
28763;DHT22;15918;51.270;6.522;2023-02-15T03:27:04;9.30;62.50
28763;DHT22;15918;51.270;6.522;2023-02-15T03:29:31;9.30;62.50
28763;DHT22;15918;51.270;6.522;2023-02-15T03:32:00;9.30;62.50
28763;DHT22;15918;51.270;6.522;2023-02-15T03:34:28;9.30;62.50
28763;DHT22;15918;51.270;6.522;2023-02-15T03:37:01;9.30;62.50
28763;DHT22;15918;51.270;6.522;2023-02-15T03:39:42;9.30;62.50
28763;DHT22;15918;51.270;6.522;2023-02-15T03:42:31;9.20;62.40
28763;DHT22;15918;51.270;6.522;2023-02-15T03:45:13;9.30;62.40
28763;DHT22;15918;51.270;6.522;2023-02-15T03:47:46;9.20;62.50
28763;DHT22;15918;51.270;6.522;2023-02-15T03:50:21;9.20;62.60
28763;DHT22;15918;51.270;6.522;2023-02-15T03:53:11;9.20;62.40
28763;DHT22;15918;51.270;6.522;2023-02-15T03:55:39;9.20;62.60
28763;DHT22;15918;51.270;6.522;2023-02-15T03:58:04;9.20;62.60
28763;DHT22;15918;51.270;6.522;2023-02-15T04:01:00;9.20;62.50
28763;DHT22;15918;51.270;6.522;2023-02-15T04:04:01;9.20;62.50
28763;DHT22;15918;51.270;6.522;2023-02-15T04:06:28;9.10;62.50
28763;DHT22;15918;51.270;6.522;2023-02-15T04:08:54;9.10;63.40
28763;DHT22;15918;51.270;6.522;2023-02-15T04:11:38;9.10;62.60
28763;DHT22;15918;51.270;6.522;2023-02-15T04:14:03;9.10;62.60
28763;DHT22;15918;51.270;6.522;2023-02-15T04:16:49;9.10;62.60
28763;DHT22;15918;51.270;6.522;2023-02-15T04:19:15;9.10;62.60
28763;DHT22;15918;51.270;6.522;2023-02-15T04:21:59;9.10;62.50
28763;DHT22;15918;51.270;6.522;2023-02-15T04:24:43;9.10;62.50
28763;DHT22;15918;51.270;6.522;2023-02-15T04:27:27;9.10;62.50
28763;DHT22;15918;51.270;6.522;2023-02-15T04:29:52;9.00;62.40
28763;DHT22;15918;51.270;6.522;2023-02-15T04:32:18;9.00;62.40
28763;DHT22;15918;51.270;6.522;2023-02-15T04:34:43;9.00;62.50
28763;DHT22;15918;51.270;6.522;2023-02-15T04:37:09;9.00;62.40
28763;DHT22;15918;51.270;6.522;2023-02-15T04:39:35;9.00;62.40
28763;DHT22;15918;51.270;6.522;2023-02-15T04:42:01;9.00;62.40
28763;DHT22;15918;51.270;6.522;2023-02-15T04:44:27;9.00;62.40
28763;DHT22;15918;51.270;6.522;2023-02-15T04:46:53;9.00;63.20
28763;DHT22;15918;51.270;6.522;2023-02-15T04:49:18;9.00;62.50
28763;DHT22;15918;51.270;6.522;2023-02-15T04:51:44;8.90;62.40
28763;DHT22;15918;51.270;6.522;2023-02-15T04:54:09;9.00;62.50
28763;DHT22;15918;51.270;6.522;2023-02-15T04:56:35;8.90;62.40
28763;DHT22;15918;51.270;6.522;2023-02-15T04:59:03;8.90;62.40
28763;DHT22;15918;51.270;6.522;2023-02-15T05:01:28;8.90;62.40
28763;DHT22;15918;51.270;6.522;2023-02-15T05:03:54;8.90;62.40
28763;DHT22;15918;51.270;6.522;2023-02-15T05:06:20;8.90;62.40
28763;DHT22;15918;51.270;6.522;2023-02-15T05:08:46;8.90;62.40
28763;DHT22;15918;51.270;6.522;2023-02-15T05:11:11;8.90;62.40
28763;DHT22;15918;51.270;6.522;2023-02-15T05:13:37;8.90;62.40
28763;DHT22;15918;51.270;6.522;2023-02-15T05:16:02;8.90;62.40
28763;DHT22;15918;51.270;6.522;2023-02-15T05:18:28;8.80;63.10
28763;DHT22;15918;51.270;6.522;2023-02-15T05:20:53;8.80;62.30
28763;DHT22;15918;51.270;6.522;2023-02-15T05:23:19;8.80;62.30
28763;DHT22;15918;51.270;6.522;2023-02-15T05:25:49;8.80;62.30
28763;DHT22;15918;51.270;6.522;2023-02-15T05:28:33;8.80;62.30
28763;DHT22;15918;51.270;6.522;2023-02-15T05:33:38;8.80;62.40
28763;DHT22;15918;51.270;6.522;2023-02-15T05:36:04;8.80;62.40
28763;DHT22;15918;51.270;6.522;2023-02-15T05:38:30;8.80;62.40
28763;DHT22;15918;51.270;6.522;2023-02-15T05:40:57;8.70;62.40
28763;DHT22;15918;51.270;6.522;2023-02-15T05:43:23;8.70;62.40
28763;DHT22;15918;51.270;6.522;2023-02-15T05:45:51;8.70;62.30
28763;DHT22;15918;51.270;6.522;2023-02-15T05:48:18;8.70;62.40
28763;DHT22;15918;51.270;6.522;2023-02-15T05:50:44;8.70;62.40
28763;DHT22;15918;51.270;6.522;2023-02-15T05:53:10;8.70;62.40
28763;DHT22;15918;51.270;6.522;2023-02-15T05:55:40;8.70;62.40
28763;DHT22;15918;51.270;6.522;2023-02-15T05:58:06;8.70;62.40
28763;DHT22;15918;51.270;6.522;2023-02-15T06:00:33;8.70;62.40
28763;DHT22;15918;51.270;6.522;2023-02-15T06:02:58;8.70;62.30
28763;DHT22;15918;51.270;6.522;2023-02-15T06:05:24;8.70;62.30
28763;DHT22;15918;51.270;6.522;2023-02-15T06:07:50;8.60;62.30
28763;DHT22;15918;51.270;6.522;2023-02-15T06:10:15;8.60;62.20
28763;DHT22;15918;51.270;6.522;2023-02-15T06:12:41;8.60;62.30
28763;DHT22;15918;51.270;6.522;2023-02-15T06:15:07;8.60;62.30
28763;DHT22;15918;51.270;6.522;2023-02-15T06:17:32;8.60;62.40
28763;DHT22;15918;51.270;6.522;2023-02-15T06:19:58;8.60;62.30
28763;DHT22;15918;51.270;6.522;2023-02-15T06:22:23;8.60;62.30
28763;DHT22;15918;51.270;6.522;2023-02-15T06:24:49;8.60;62.30
28763;DHT22;15918;51.270;6.522;2023-02-15T06:27:14;8.60;62.30
28763;DHT22;15918;51.270;6.522;2023-02-15T06:29:40;8.60;62.30
28763;DHT22;15918;51.270;6.522;2023-02-15T06:32:06;8.60;62.30
28763;DHT22;15918;51.270;6.522;2023-02-15T06:34:31;8.60;62.30
28763;DHT22;15918;51.270;6.522;2023-02-15T06:36:57;8.50;62.20
28763;DHT22;15918;51.270;6.522;2023-02-15T06:39:23;8.50;62.30
28763;DHT22;15918;51.270;6.522;2023-02-15T06:41:48;8.50;62.30
28763;DHT22;15918;51.270;6.522;2023-02-15T06:44:14;8.50;62.30
28763;DHT22;15918;51.270;6.522;2023-02-15T06:46:40;8.50;62.30
28763;DHT22;15918;51.270;6.522;2023-02-15T06:49:05;8.50;62.30
28763;DHT22;15918;51.270;6.522;2023-02-15T06:51:31;8.50;62.20
28763;DHT22;15918;51.270;6.522;2023-02-15T06:53:57;8.50;63.00
28763;DHT22;15918;51.270;6.522;2023-02-15T06:56:22;8.50;62.20
28763;DHT22;15918;51.270;6.522;2023-02-15T06:58:48;8.50;62.30
28763;DHT22;15918;51.270;6.522;2023-02-15T07:01:18;8.50;62.30
28763;DHT22;15918;51.270;6.522;2023-02-15T07:03:44;8.40;62.20
28763;DHT22;15918;51.270;6.522;2023-02-15T07:06:09;8.40;62.90
28763;DHT22;15918;51.270;6.522;2023-02-15T07:08:37;8.40;62.20
28763;DHT22;15918;51.270;6.522;2023-02-15T07:11:03;8.40;62.20
28763;DHT22;15918;51.270;6.522;2023-02-15T07:13:48;8.40;62.20
28763;DHT22;15918;51.270;6.522;2023-02-15T07:16:13;8.40;62.30
28763;DHT22;15918;51.270;6.522;2023-02-15T07:18:39;8.40;62.30
28763;DHT22;15918;51.270;6.522;2023-02-15T07:21:06;8.40;62.30
28763;DHT22;15918;51.270;6.522;2023-02-15T07:23:37;8.40;62.40
28763;DHT22;15918;51.270;6.522;2023-02-15T07:26:03;8.40;62.40
28763;DHT22;15918;51.270;6.522;2023-02-15T07:28:29;8.30;62.30
28763;DHT22;15918;51.270;6.522;2023-02-15T07:30:54;8.40;62.40
28763;DHT22;15918;51.270;6.522;2023-02-15T07:33:20;8.40;62.40
28763;DHT22;15918;51.270;6.522;2023-02-15T07:35:49;8.40;62.40
28763;DHT22;15918;51.270;6.522;2023-02-15T07:38:15;8.30;62.30
28763;DHT22;15918;51.270;6.522;2023-02-15T07:40:42;8.30;62.30
28763;DHT22;15918;51.270;6.522;2023-02-15T07:43:07;8.30;62.30
28763;DHT22;15918;51.270;6.522;2023-02-15T07:45:33;8.30;62.40
28763;DHT22;15918;51.270;6.522;2023-02-15T07:48:01;8.30;62.40
28763;DHT22;15918;51.270;6.522;2023-02-15T07:50:27;8.30;62.40
28763;DHT22;15918;51.270;6.522;2023-02-15T07:52:52;8.30;62.40
28763;DHT22;15918;51.270;6.522;2023-02-15T07:55:18;8.30;62.50
28763;DHT22;15918;51.270;6.522;2023-02-15T07:57:45;8.30;62.50
28763;DHT22;15918;51.270;6.522;2023-02-15T08:00:15;8.30;62.50
28763;DHT22;15918;51.270;6.522;2023-02-15T08:02:47;8.30;62.50
28763;DHT22;15918;51.270;6.522;2023-02-15T08:05:12;8.30;62.70
28763;DHT22;15918;51.270;6.522;2023-02-15T08:07:38;8.30;62.70
28763;DHT22;15918;51.270;6.522;2023-02-15T08:10:04;8.30;62.70
28763;DHT22;15918;51.270;6.522;2023-02-15T08:12:29;8.30;62.70
28763;DHT22;15918;51.270;6.522;2023-02-15T08:14:55;8.30;62.70
28763;DHT22;15918;51.270;6.522;2023-02-15T08:17:20;8.30;62.70
28763;DHT22;15918;51.270;6.522;2023-02-15T08:19:46;8.30;62.80
28763;DHT22;15918;51.270;6.522;2023-02-15T08:22:13;8.30;62.70
28763;DHT22;15918;51.270;6.522;2023-02-15T08:24:39;8.30;62.80
28763;DHT22;15918;51.270;6.522;2023-02-15T08:27:08;8.30;62.80
28763;DHT22;15918;51.270;6.522;2023-02-15T08:29:35;8.30;62.80
28763;DHT22;15918;51.270;6.522;2023-02-15T08:32:06;8.30;62.80
28763;DHT22;15918;51.270;6.522;2023-02-15T08:34:34;8.40;62.90
28763;DHT22;15918;51.270;6.522;2023-02-15T08:37:00;8.40;63.00
28763;DHT22;15918;51.270;6.522;2023-02-15T08:39:26;8.30;62.90
28763;DHT22;15918;51.270;6.522;2023-02-15T08:41:52;8.30;62.90
28763;DHT22;15918;51.270;6.522;2023-02-15T08:44:19;8.40;63.00
28763;DHT22;15918;51.270;6.522;2023-02-15T08:46:46;8.40;63.50
28763;DHT22;15918;51.270;6.522;2023-02-15T08:49:17;8.40;63.00
28763;DHT22;15918;51.270;6.522;2023-02-15T08:51:43;8.40;63.00
28763;DHT22;15918;51.270;6.522;2023-02-15T08:54:12;8.40;63.00
28763;DHT22;15918;51.270;6.522;2023-02-15T08:56:40;8.40;63.00
28763;DHT22;15918;51.270;6.522;2023-02-15T08:59:10;8.40;63.10
28763;DHT22;15918;51.270;6.522;2023-02-15T09:01:37;8.40;63.20
28763;DHT22;15918;51.270;6.522;2023-02-15T09:04:05;8.50;63.20
28763;DHT22;15918;51.270;6.522;2023-02-15T09:06:34;8.50;63.30
28763;DHT22;15918;51.270;6.522;2023-02-15T09:08:59;8.50;63.30
28763;DHT22;15918;51.270;6.522;2023-02-15T09:11:28;8.50;63.30
28763;DHT22;15918;51.270;6.522;2023-02-15T09:13:56;8.50;63.30
28763;DHT22;15918;51.270;6.522;2023-02-15T09:16:24;8.50;63.20
28763;DHT22;15918;51.270;6.522;2023-02-15T09:18:50;8.50;63.30
28763;DHT22;15918;51.270;6.522;2023-02-15T09:21:19;8.50;63.20
28763;DHT22;15918;51.270;6.522;2023-02-15T09:23:46;8.60;63.30
28763;DHT22;15918;51.270;6.522;2023-02-15T09:26:14;8.60;63.30
28763;DHT22;15918;51.270;6.522;2023-02-15T09:28:40;8.60;63.40
28763;DHT22;15918;51.270;6.522;2023-02-15T09:31:11;8.60;63.40
28763;DHT22;15918;51.270;6.522;2023-02-15T09:33:38;8.60;63.40
28763;DHT22;15918;51.270;6.522;2023-02-15T09:36:05;8.60;63.50
28763;DHT22;15918;51.270;6.522;2023-02-15T09:38:31;8.70;63.60
28763;DHT22;15918;51.270;6.522;2023-02-15T09:44:31;8.80;63.60
28763;DHT22;15918;51.270;6.522;2023-02-15T09:47:36;8.70;63.60
28763;DHT22;15918;51.270;6.522;2023-02-15T09:53:34;8.80;63.80
28763;DHT22;15918;51.270;6.522;2023-02-15T09:56:26;8.80;63.80
28763;DHT22;15918;51.270;6.522;2023-02-15T10:01:42;8.80;63.90
28763;DHT22;15918;51.270;6.522;2023-02-15T10:28:53;9.10;64.10
28763;DHT22;15918;51.270;6.522;2023-02-15T10:31:25;9.10;64.20
28763;DHT22;15918;51.270;6.522;2023-02-15T10:50:50;9.40;64.30
28763;DHT22;15918;51.270;6.522;2023-02-15T10:53:32;9.40;64.30
28763;DHT22;15918;51.270;6.522;2023-02-15T10:59:33;9.40;64.20
28763;DHT22;15918;51.270;6.522;2023-02-15T11:02:12;9.50;64.30
28763;DHT22;15918;51.270;6.522;2023-02-15T11:07:39;9.50;64.40
28763;DHT22;15918;51.270;6.522;2023-02-15T11:10:42;9.50;64.40
28763;DHT22;15918;51.270;6.522;2023-02-15T11:13:13;9.60;64.40
28763;DHT22;15918;51.270;6.522;2023-02-15T11:15:44;9.60;64.50
28763;DHT22;15918;51.270;6.522;2023-02-15T11:18:23;9.60;64.40
28763;DHT22;15918;51.270;6.522;2023-02-15T11:23:37;9.70;64.50
28763;DHT22;15918;51.270;6.522;2023-02-15T11:26:12;9.70;64.50
28763;DHT22;15918;51.270;6.522;2023-02-15T11:28:57;9.80;64.60
28763;DHT22;15918;51.270;6.522;2023-02-15T11:31:26;9.80;64.50
28763;DHT22;15918;51.270;6.522;2023-02-15T11:33:59;9.80;64.50
28763;DHT22;15918;51.270;6.522;2023-02-15T11:36:35;9.90;64.60
28763;DHT22;15918;51.270;6.522;2023-02-15T11:39:08;9.90;64.60
28763;DHT22;15918;51.270;6.522;2023-02-15T11:41:38;9.90;64.50
28763;DHT22;15918;51.270;6.522;2023-02-15T11:44:06;9.90;64.40
28763;DHT22;15918;51.270;6.522;2023-02-15T11:46:34;10.00;64.50
28763;DHT22;15918;51.270;6.522;2023-02-15T11:48:59;10.00;64.50
28763;DHT22;15918;51.270;6.522;2023-02-15T11:51:25;10.00;65.30
28763;DHT22;15918;51.270;6.522;2023-02-15T11:53:54;10.00;64.40
28763;DHT22;15918;51.270;6.522;2023-02-15T11:56:24;10.10;64.40
28763;DHT22;15918;51.270;6.522;2023-02-15T11:59:03;10.10;64.40
28763;DHT22;15918;51.270;6.522;2023-02-15T12:01:36;10.10;64.40
28763;DHT22;15918;51.270;6.522;2023-02-15T12:04:22;10.10;64.50
28763;DHT22;15918;51.270;6.522;2023-02-15T12:06:53;10.10;64.50
28763;DHT22;15918;51.270;6.522;2023-02-15T12:12:31;10.20;65.10
28763;DHT22;15918;51.270;6.522;2023-02-15T12:15:06;10.20;64.40
28763;DHT22;15918;51.270;6.522;2023-02-15T12:17:41;10.30;64.50
28763;DHT22;15918;51.270;6.522;2023-02-15T12:22:39;10.30;64.60
28763;DHT22;15918;51.270;6.522;2023-02-15T12:25:23;10.30;64.60
28763;DHT22;15918;51.270;6.522;2023-02-15T12:27:50;10.30;64.60
28763;DHT22;15918;51.270;6.522;2023-02-15T12:32:57;10.40;64.60
28763;DHT22;15918;51.270;6.522;2023-02-15T12:35:33;10.50;64.70
28763;DHT22;15918;51.270;6.522;2023-02-15T12:38:19;10.50;64.80
28763;DHT22;15918;51.270;6.522;2023-02-15T12:40:58;10.50;64.80
28763;DHT22;15918;51.270;6.522;2023-02-15T12:43:33;10.50;65.60
28763;DHT22;15918;51.270;6.522;2023-02-15T12:46:24;10.60;64.90
28763;DHT22;15918;51.270;6.522;2023-02-15T12:51:51;10.60;64.80
28763;DHT22;15918;51.270;6.522;2023-02-15T12:54:30;10.60;64.90
28763;DHT22;15918;51.270;6.522;2023-02-15T12:56:57;10.70;65.00
28763;DHT22;15918;51.270;6.522;2023-02-15T12:59:24;10.70;64.90
28763;DHT22;15918;51.270;6.522;2023-02-15T13:01:51;10.70;64.90
28763;DHT22;15918;51.270;6.522;2023-02-15T13:04:27;10.80;64.90
28763;DHT22;15918;51.270;6.522;2023-02-15T13:07:00;10.80;64.90
28763;DHT22;15918;51.270;6.522;2023-02-15T13:11:57;10.90;65.00
28763;DHT22;15918;51.270;6.522;2023-02-15T13:14:31;10.90;65.10
28763;DHT22;15918;51.270;6.522;2023-02-15T13:17:01;10.90;65.90
28763;DHT22;15918;51.270;6.522;2023-02-15T13:19:39;10.90;65.10
28763;DHT22;15918;51.270;6.522;2023-02-15T13:22:10;10.90;65.00
28763;DHT22;15918;51.270;6.522;2023-02-15T13:24:48;10.90;65.10
28763;DHT22;15918;51.270;6.522;2023-02-15T13:27:20;11.00;65.20
28763;DHT22;15918;51.270;6.522;2023-02-15T13:29:51;11.00;65.20
28763;DHT22;15918;51.270;6.522;2023-02-15T13:32:34;11.00;65.40
28763;DHT22;15918;51.270;6.522;2023-02-15T13:35:02;11.10;65.30
28763;DHT22;15918;51.270;6.522;2023-02-15T13:38:02;11.10;65.30
28763;DHT22;15918;51.270;6.522;2023-02-15T13:41:04;11.10;65.30
28763;DHT22;15918;51.270;6.522;2023-02-15T13:43:52;11.10;65.20
28763;DHT22;15918;51.270;6.522;2023-02-15T13:46:36;11.20;65.30
28763;DHT22;15918;51.270;6.522;2023-02-15T13:58:06;11.20;65.50
28763;DHT22;15918;51.270;6.522;2023-02-15T14:00:05;11.20;65.30
28763;DHT22;15918;51.270;6.522;2023-02-15T14:02:46;11.30;65.30
28763;DHT22;15918;51.270;6.522;2023-02-15T14:11:02;11.30;65.00
28763;DHT22;15918;51.270;6.522;2023-02-15T14:14:11;11.30;65.10
28763;DHT22;15918;51.270;6.522;2023-02-15T14:17:02;11.30;65.00
28763;DHT22;15918;51.270;6.522;2023-02-15T14:19:39;11.40;65.00
28763;DHT22;15918;51.270;6.522;2023-02-15T14:24:45;11.40;65.00
28763;DHT22;15918;51.270;6.522;2023-02-15T14:30:26;11.40;64.90
28763;DHT22;15918;51.270;6.522;2023-02-15T14:32:55;11.50;64.80
28763;DHT22;15918;51.270;6.522;2023-02-15T14:35:24;11.40;64.90
28763;DHT22;15918;51.270;6.522;2023-02-15T14:40:48;11.50;64.80
28763;DHT22;15918;51.270;6.522;2023-02-15T14:49:13;11.50;64.80
28763;DHT22;15918;51.270;6.522;2023-02-15T14:54:10;11.50;64.80
28763;DHT22;15918;51.270;6.522;2023-02-15T14:56:36;11.50;64.80
28763;DHT22;15918;51.270;6.522;2023-02-15T14:59:21;11.50;64.80
28763;DHT22;15918;51.270;6.522;2023-02-15T15:01:58;11.50;64.80
28763;DHT22;15918;51.270;6.522;2023-02-15T15:04:34;11.50;64.80
28763;DHT22;15918;51.270;6.522;2023-02-15T15:07:21;11.50;64.80
28763;DHT22;15918;51.270;6.522;2023-02-15T15:12:49;11.50;64.80
28763;DHT22;15918;51.270;6.522;2023-02-15T15:18:10;11.60;64.90
28763;DHT22;15918;51.270;6.522;2023-02-15T15:20:55;11.50;64.80
28763;DHT22;15918;51.270;6.522;2023-02-15T15:23:39;11.50;65.00
28763;DHT22;15918;51.270;6.522;2023-02-15T15:26:24;11.50;64.80
28763;DHT22;15918;51.270;6.522;2023-02-15T15:31:30;11.50;64.90
28763;DHT22;15918;51.270;6.522;2023-02-15T15:39:36;11.50;64.90
28763;DHT22;15918;51.270;6.522;2023-02-15T15:51:04;11.50;65.10
28763;DHT22;15918;51.270;6.522;2023-02-15T15:53:37;11.50;65.00
28763;DHT22;15918;51.270;6.522;2023-02-15T15:56:08;11.50;65.00
28763;DHT22;15918;51.270;6.522;2023-02-15T15:58:35;11.50;65.00
28763;DHT22;15918;51.270;6.522;2023-02-15T16:01:08;11.50;65.70
28763;DHT22;15918;51.270;6.522;2023-02-15T16:03:34;11.50;64.90
28763;DHT22;15918;51.270;6.522;2023-02-15T16:06:00;11.60;64.90
28763;DHT22;15918;51.270;6.522;2023-02-15T16:11:00;11.60;64.90
28763;DHT22;15918;51.270;6.522;2023-02-15T16:13:27;11.60;64.90
28763;DHT22;15918;51.270;6.522;2023-02-15T16:15:54;11.60;64.90
28763;DHT22;15918;51.270;6.522;2023-02-15T16:18:26;11.60;64.90
28763;DHT22;15918;51.270;6.522;2023-02-15T16:20:57;11.60;64.90
28763;DHT22;15918;51.270;6.522;2023-02-15T16:28:52;11.60;64.90
28763;DHT22;15918;51.270;6.522;2023-02-15T16:31:19;11.50;65.00
28763;DHT22;15918;51.270;6.522;2023-02-15T16:33:45;11.50;64.90
28763;DHT22;15918;51.270;6.522;2023-02-15T16:36:21;11.50;64.90
28763;DHT22;15918;51.270;6.522;2023-02-15T16:41:21;11.50;65.00
28763;DHT22;15918;51.270;6.522;2023-02-15T16:43:49;11.50;65.00
28763;DHT22;15918;51.270;6.522;2023-02-15T16:46:36;11.50;65.00
28763;DHT22;15918;51.270;6.522;2023-02-15T16:49:14;11.60;65.00
28763;DHT22;15918;51.270;6.522;2023-02-15T16:51:42;11.50;65.10
28763;DHT22;15918;51.270;6.522;2023-02-15T16:54:17;11.50;65.20
28763;DHT22;15918;51.270;6.522;2023-02-15T16:56:44;11.50;65.20
28763;DHT22;15918;51.270;6.522;2023-02-15T17:01:53;11.40;65.20
28763;DHT22;15918;51.270;6.522;2023-02-15T17:07:04;11.40;65.30
28763;DHT22;15918;51.270;6.522;2023-02-15T17:09:30;11.40;65.30
28763;DHT22;15918;51.270;6.522;2023-02-15T17:11:56;11.40;65.30
28763;DHT22;15918;51.270;6.522;2023-02-15T17:14:37;11.40;65.40
28763;DHT22;15918;51.270;6.522;2023-02-15T17:17:12;11.40;65.30
28763;DHT22;15918;51.270;6.522;2023-02-15T17:19:53;11.40;65.40
28763;DHT22;15918;51.270;6.522;2023-02-15T17:22:23;11.40;65.40
28763;DHT22;15918;51.270;6.522;2023-02-15T17:24:57;11.30;65.40
28763;DHT22;15918;51.270;6.522;2023-02-15T17:27:28;11.30;65.50
28763;DHT22;15918;51.270;6.522;2023-02-15T17:30:01;11.30;65.50
28763;DHT22;15918;51.270;6.522;2023-02-15T17:32:29;11.30;65.60
28763;DHT22;15918;51.270;6.522;2023-02-15T17:35:27;11.30;65.60
28763;DHT22;15918;51.270;6.522;2023-02-15T17:38:18;11.30;65.40
28763;DHT22;15918;51.270;6.522;2023-02-15T17:40:44;11.30;65.60
28763;DHT22;15918;51.270;6.522;2023-02-15T17:43:10;11.30;65.70
28763;DHT22;15918;51.270;6.522;2023-02-15T17:45:48;11.30;65.70
28763;DHT22;15918;51.270;6.522;2023-02-15T17:50:56;11.30;65.80
28763;DHT22;15918;51.270;6.522;2023-02-15T17:53:23;11.20;65.80
28763;DHT22;15918;51.270;6.522;2023-02-15T17:55:50;11.20;65.80
28763;DHT22;15918;51.270;6.522;2023-02-15T17:58:17;11.20;65.80
28763;DHT22;15918;51.270;6.522;2023-02-15T18:00:57;11.30;66.00
28763;DHT22;15918;51.270;6.522;2023-02-15T18:03:47;11.20;65.80
28763;DHT22;15918;51.270;6.522;2023-02-15T18:06:33;11.20;65.90
28763;DHT22;15918;51.270;6.522;2023-02-15T18:09:19;11.20;66.00
28763;DHT22;15918;51.270;6.522;2023-02-15T18:14:46;11.20;66.00
28763;DHT22;15918;51.270;6.522;2023-02-15T18:17:13;11.20;66.10
28763;DHT22;15918;51.270;6.522;2023-02-15T18:19:41;11.10;66.00
28763;DHT22;15918;51.270;6.522;2023-02-15T18:22:11;11.20;66.00
28763;DHT22;15918;51.270;6.522;2023-02-15T18:24:37;11.20;66.00
28763;DHT22;15918;51.270;6.522;2023-02-15T18:27:04;11.20;66.00
28763;DHT22;15918;51.270;6.522;2023-02-15T18:29:29;11.20;66.00
28763;DHT22;15918;51.270;6.522;2023-02-15T18:31:55;11.20;66.00
28763;DHT22;15918;51.270;6.522;2023-02-15T18:34:34;11.20;66.00
28763;DHT22;15918;51.270;6.522;2023-02-15T18:37:03;11.20;66.00
28763;DHT22;15918;51.270;6.522;2023-02-15T18:39:45;11.10;66.70
28763;DHT22;15918;51.270;6.522;2023-02-15T18:44:46;11.20;65.90
28763;DHT22;15918;51.270;6.522;2023-02-15T18:47:11;11.10;65.90
28763;DHT22;15918;51.270;6.522;2023-02-15T18:49:37;11.10;65.90
28763;DHT22;15918;51.270;6.522;2023-02-15T18:52:02;11.10;66.00
28763;DHT22;15918;51.270;6.522;2023-02-15T18:54:28;11.10;66.00
28763;DHT22;15918;51.270;6.522;2023-02-15T18:57:00;11.10;65.90
28763;DHT22;15918;51.270;6.522;2023-02-15T18:59:27;11.10;65.90
28763;DHT22;15918;51.270;6.522;2023-02-15T19:01:56;11.10;66.00
28763;DHT22;15918;51.270;6.522;2023-02-15T19:04:22;11.10;66.00
28763;DHT22;15918;51.270;6.522;2023-02-15T19:06:48;11.10;66.00
28763;DHT22;15918;51.270;6.522;2023-02-15T19:09:22;11.10;66.00